KFME/FME METAR and TAF weather

Enter ICAO airport designator
Station Type Date Time Source
KFME METAR 2019/02/21 11:42 UTC NOAA

KFME 211142Z AUTO 00000KT 3/4SM BKN002 00/00 A3003 RMK AO1


Station Type Date Time Source
KFME Decoded METAR 2019/02/21 11:42 UTC NOAA

Fort Meade / Tipton, MD, United States (KFME) 39-05N 076-46W
Feb 21, 2019 - 06:42 AM EST / 2019.02.21 1142 UTC
Wind: Calm:0
Visibility: 3/4 mile(s):0
Sky conditions: mostly cloudy
Temperature: 32 F (0 C)
Dew Point: 32 F (0 C)
Relative Humidity: 100%
Pressure (altimeter): 30.03 in. Hg (1016 hPa)
ob: KFME 211142Z AUTO 00000KT 3/4SM BKN002 00/00 A3003 RMK AO1
cycle: 11

Station Type Date Time Source
KFME TAF UTC NOAA

Error!


Example: see airport list